Archbold, OH

9:08 AM EDT on October 20, 2014 (GMT -0400)
Lenawee County | Change Station
CLOSE
Current Station
Airport
Location: Adrian,
Elevation: 797 ft
Nearby Weather Stations

Elev 797 ft 41.87 °N, 84.08 °W | Updated 15 minutes ago

Overcast
Overcast
48 °F
Feels Like 48 °F
N
12
Wind Variable Wind from SW

Today
High -- | Low -- °F
--% Chance of Precip.
Yesterday
High -- | Low -- °F
Precip. -- in
7:54 AM 6:48 PM
Waning Crescent, 11% visible
Pressure 29.89 in
Visibility 10.0 miles
Clouds Overcast 6000 ft
Dew Point 43 °F
Humidity 83%
Rainfall 0.00 in
Snow Depth Not available.
UV 0 out of 12
Pollen .60 out of 12
Air Quality Not available.
Flu Activity Not available.
METAR KADG 201253Z AUTO 23010KT 10SM OVC060 09/06 A2988 RMK AO2 SLP121 T00890061

More Conditions Fewer Conditions

Pressure 29.89 in
Visibility 10.0 miles
Clouds Overcast 6000 ft
Dew Point 43 °F
Humidity 83%
Rainfall 0.00 in
Snow Depth Not available.
UV 0 out of 12
Pollen .60 out of 12
Air Quality Not available.
Flu Activity Not available.
METAR KADG 201253Z AUTO 23010KT 10SM OVC060 09/06 A2988 RMK AO2 SLP121 T00890061

More Conditions Fewer Conditions

10-Day Weather Forecast

Almanac

Astronomy

Oct. 20, 2014 Rise Set
Actual Time 7:54 AM EDT 6:48 PM EDT
Civil Twilight 7:26 AM EDT 7:16 PM EDT
Nautical Twilight 6:54 AM EDT 7:48 PM EDT
Astronomical Twilight 6:22 AM EDT 8:20 PM EDT
Moon 4:40 AM EDT 5:12 PM EDT
Length of Visible Light 11h 49m
Length of Day
10h 53m
Tomorrow will be 2m 37s shorter.
Waning Crescent, 11% of the Moon is Illuminated
Today
Waning Crescent
Oct 23
New
Oct 30
First Quarter
Nov 6
Full
Nov 14
Last Quarter

Today's Extremes

State Highs State Lows

Community

WunderPhotos

Upload Photos

1,763,363 photos uploaded!

Nearby

Snow Depth

Station Depth Elevation
No new snow has been reported.

Earthquake Activity

City Distance Mag. Time & Date
No recent earthquake activity has been reported nearby.
Minimum magnitude displayed is 2.5.

Coastal Water Temperatures

Place Temperature
No Stations Reporting

Nearby Weather Stations